sensor_id;sensor_type;location;lat;lon;timestamp;temperature;humidity
4739;DHT22;2383;48.632;10.156;2022-08-21T00:01:56;20.30;99.90
4739;DHT22;2383;48.632;10.156;2022-08-21T00:05:58;20.50;99.90
4739;DHT22;2383;48.632;10.156;2022-08-21T00:09:59;20.90;99.90
4739;DHT22;2383;48.632;10.156;2022-08-21T00:14:02;21.20;99.90
4739;DHT22;2383;48.632;10.156;2022-08-21T00:18:06;21.10;99.90
4739;DHT22;2383;48.632;10.156;2022-08-21T00:22:08;20.60;99.90
4739;DHT22;2383;48.632;10.156;2022-08-21T00:26:10;20.60;99.90
4739;DHT22;2383;48.632;10.156;2022-08-21T00:30:22;20.40;99.90
4739;DHT22;2383;48.632;10.156;2022-08-21T00:34:24;20.10;99.90
4739;DHT22;2383;48.632;10.156;2022-08-21T00:38:26;20.60;99.90
4739;DHT22;2383;48.632;10.156;2022-08-21T00:42:28;20.80;99.90
4739;DHT22;2383;48.632;10.156;2022-08-21T00:46:31;20.80;99.90
4739;DHT22;2383;48.632;10.156;2022-08-21T00:50:38;20.70;99.90
4739;DHT22;2383;48.632;10.156;2022-08-21T00:54:42;20.60;99.90
4739;DHT22;2383;48.632;10.156;2022-08-21T00:58:47;19.40;99.90
4739;DHT22;2383;48.632;10.156;2022-08-21T01:02:56;19.60;99.90
4739;DHT22;2383;48.632;10.156;2022-08-21T01:06:58;20.00;99.90
4739;DHT22;2383;48.632;10.156;2022-08-21T01:11:01;20.20;99.90
4739;DHT22;2383;48.632;10.156;2022-08-21T01:15:05;20.30;99.90
4739;DHT22;2383;48.632;10.156;2022-08-21T01:19:08;20.00;99.90
4739;DHT22;2383;48.632;10.156;2022-08-21T01:23:12;19.90;99.90
4739;DHT22;2383;48.632;10.156;2022-08-21T01:27:14;19.60;99.90
4739;DHT22;2383;48.632;10.156;2022-08-21T01:31:18;19.30;99.90
4739;DHT22;2383;48.632;10.156;2022-08-21T01:35:26;19.60;99.90
4739;DHT22;2383;48.632;10.156;2022-08-21T01:39:29;19.00;99.90
4739;DHT22;2383;48.632;10.156;2022-08-21T01:43:31;19.40;99.90
4739;DHT22;2383;48.632;10.156;2022-08-21T01:47:40;19.60;99.90
4739;DHT22;2383;48.632;10.156;2022-08-21T01:51:42;19.60;99.90
4739;DHT22;2383;48.632;10.156;2022-08-21T01:55:44;19.80;99.90
4739;DHT22;2383;48.632;10.156;2022-08-21T01:59:46;19.80;99.90
4739;DHT22;2383;48.632;10.156;2022-08-21T02:03:48;19.50;99.90
4739;DHT22;2383;48.632;10.156;2022-08-21T02:07:51;19.70;99.90
4739;DHT22;2383;48.632;10.156;2022-08-21T02:11:53;19.60;99.90
4739;DHT22;2383;48.632;10.156;2022-08-21T02:15:56;19.30;99.90
4739;DHT22;2383;48.632;10.156;2022-08-21T02:19:58;19.30;99.90
4739;DHT22;2383;48.632;10.156;2022-08-21T02:23:59;19.40;99.90
4739;DHT22;2383;48.632;10.156;2022-08-21T02:28:11;19.50;99.90
4739;DHT22;2383;48.632;10.156;2022-08-21T02:32:13;19.40;99.90
4739;DHT22;2383;48.632;10.156;2022-08-21T02:36:16;19.50;99.90
4739;DHT22;2383;48.632;10.156;2022-08-21T02:40:21;19.70;99.90
4739;DHT22;2383;48.632;10.156;2022-08-21T02:44:23;19.10;99.90
4739;DHT22;2383;48.632;10.156;2022-08-21T02:48:36;18.10;99.90
4739;DHT22;2383;48.632;10.156;2022-08-21T02:52:38;18.40;99.90
4739;DHT22;2383;48.632;10.156;2022-08-21T02:56:39;19.00;99.90
4739;DHT22;2383;48.632;10.156;2022-08-21T03:00:42;19.00;99.90
4739;DHT22;2383;48.632;10.156;2022-08-21T03:04:45;19.10;99.90
4739;DHT22;2383;48.632;10.156;2022-08-21T03:08:47;19.10;99.90
4739;DHT22;2383;48.632;10.156;2022-08-21T03:12:49;19.20;99.90
4739;DHT22;2383;48.632;10.156;2022-08-21T03:16:51;18.70;99.90
4739;DHT22;2383;48.632;10.156;2022-08-21T03:20:53;18.70;99.90
4739;DHT22;2383;48.632;10.156;2022-08-21T03:24:55;18.80;99.90
4739;DHT22;2383;48.632;10.156;2022-08-21T03:28:58;18.90;99.90
4739;DHT22;2383;48.632;10.156;2022-08-21T03:33:00;18.80;99.90
4739;DHT22;2383;48.632;10.156;2022-08-21T03:37:03;19.00;99.90
4739;DHT22;2383;48.632;10.156;2022-08-21T03:41:06;19.00;99.90
4739;DHT22;2383;48.632;10.156;2022-08-21T03:45:09;19.00;99.90
4739;DHT22;2383;48.632;10.156;2022-08-21T03:49:11;18.70;99.90
4739;DHT22;2383;48.632;10.156;2022-08-21T03:53:14;18.80;99.90
4739;DHT22;2383;48.632;10.156;2022-08-21T03:57:18;19.10;99.90
4739;DHT22;2383;48.632;10.156;2022-08-21T04:01:20;18.50;99.90
4739;DHT22;2383;48.632;10.156;2022-08-21T04:05:22;18.60;99.90
4739;DHT22;2383;48.632;10.156;2022-08-21T04:09:29;18.70;99.90
4739;DHT22;2383;48.632;10.156;2022-08-21T04:13:31;18.50;99.90
4739;DHT22;2383;48.632;10.156;2022-08-21T04:17:33;18.60;99.90
4739;DHT22;2383;48.632;10.156;2022-08-21T04:21:37;18.70;99.90
4739;DHT22;2383;48.632;10.156;2022-08-21T04:25:39;18.90;99.90
4739;DHT22;2383;48.632;10.156;2022-08-21T04:29:40;18.90;99.90
4739;DHT22;2383;48.632;10.156;2022-08-21T04:33:42;18.70;99.90
4739;DHT22;2383;48.632;10.156;2022-08-21T04:37:44;18.80;99.90
4739;DHT22;2383;48.632;10.156;2022-08-21T04:41:46;18.90;99.90
4739;DHT22;2383;48.632;10.156;2022-08-21T04:45:48;18.70;99.90
4739;DHT22;2383;48.632;10.156;2022-08-21T04:49:50;18.30;99.90
4739;DHT22;2383;48.632;10.156;2022-08-21T04:54:00;18.50;99.90
4739;DHT22;2383;48.632;10.156;2022-08-21T04:58:05;18.50;99.90
4739;DHT22;2383;48.632;10.156;2022-08-21T05:02:08;18.60;99.90
4739;DHT22;2383;48.632;10.156;2022-08-21T05:06:11;18.50;99.90
4739;DHT22;2383;48.632;10.156;2022-08-21T05:10:15;18.50;99.90
4739;DHT22;2383;48.632;10.156;2022-08-21T05:14:17;18.00;99.90
4739;DHT22;2383;48.632;10.156;2022-08-21T05:18:19;18.30;99.90
4739;DHT22;2383;48.632;10.156;2022-08-21T05:22:23;18.50;99.90
4739;DHT22;2383;48.632;10.156;2022-08-21T05:26:26;18.80;99.90
4739;DHT22;2383;48.632;10.156;2022-08-21T05:30:27;18.40;99.90
4739;DHT22;2383;48.632;10.156;2022-08-21T05:34:29;18.40;99.90
4739;DHT22;2383;48.632;10.156;2022-08-21T05:38:31;18.80;99.90
4739;DHT22;2383;48.632;10.156;2022-08-21T05:42:33;19.10;99.90
4739;DHT22;2383;48.632;10.156;2022-08-21T05:46:35;18.80;99.90
4739;DHT22;2383;48.632;10.156;2022-08-21T05:50:37;18.60;99.90
4739;DHT22;2383;48.632;10.156;2022-08-21T05:54:39;18.20;99.90
4739;DHT22;2383;48.632;10.156;2022-08-21T05:58:42;18.10;99.90
4739;DHT22;2383;48.632;10.156;2022-08-21T06:02:44;18.60;99.90
4739;DHT22;2383;48.632;10.156;2022-08-21T06:06:46;18.60;99.90
4739;DHT22;2383;48.632;10.156;2022-08-21T06:10:50;19.00;99.90
4739;DHT22;2383;48.632;10.156;2022-08-21T06:14:52;18.60;99.90
4739;DHT22;2383;48.632;10.156;2022-08-21T06:18:54;18.80;99.90
4739;DHT22;2383;48.632;10.156;2022-08-21T06:23:03;19.10;99.90
4739;DHT22;2383;48.632;10.156;2022-08-21T06:27:06;18.70;99.90
4739;DHT22;2383;48.632;10.156;2022-08-21T06:31:16;18.70;99.90
4739;DHT22;2383;48.632;10.156;2022-08-21T06:35:18;19.00;99.90
4739;DHT22;2383;48.632;10.156;2022-08-21T06:39:20;19.60;99.90
4739;DHT22;2383;48.632;10.156;2022-08-21T06:43:31;20.10;99.90
4739;DHT22;2383;48.632;10.156;2022-08-21T06:47:40;20.10;99.90
4739;DHT22;2383;48.632;10.156;2022-08-21T06:51:43;20.10;99.90
4739;DHT22;2383;48.632;10.156;2022-08-21T06:55:45;20.60;99.90
4739;DHT22;2383;48.632;10.156;2022-08-21T06:59:47;20.80;99.90
4739;DHT22;2383;48.632;10.156;2022-08-21T07:03:49;20.90;99.90
4739;DHT22;2383;48.632;10.156;2022-08-21T07:07:52;21.30;99.90
4739;DHT22;2383;48.632;10.156;2022-08-21T07:11:55;21.70;99.90
4739;DHT22;2383;48.632;10.156;2022-08-21T07:15:57;21.80;99.90
4739;DHT22;2383;48.632;10.156;2022-08-21T07:20:05;22.10;99.90
4739;DHT22;2383;48.632;10.156;2022-08-21T07:24:08;22.40;99.90
4739;DHT22;2383;48.632;10.156;2022-08-21T07:28:10;22.60;99.90
4739;DHT22;2383;48.632;10.156;2022-08-21T07:32:12;22.70;99.90
4739;DHT22;2383;48.632;10.156;2022-08-21T07:36:18;22.80;99.90
4739;DHT22;2383;48.632;10.156;2022-08-21T07:40:20;22.90;99.90
4739;DHT22;2383;48.632;10.156;2022-08-21T07:44:22;22.90;99.90
4739;DHT22;2383;48.632;10.156;2022-08-21T07:48:24;23.20;99.90
4739;DHT22;2383;48.632;10.156;2022-08-21T07:52:26;23.40;99.90
4739;DHT22;2383;48.632;10.156;2022-08-21T07:56:32;23.50;99.90
4739;DHT22;2383;48.632;10.156;2022-08-21T08:00:34;23.60;99.90
4739;DHT22;2383;48.632;10.156;2022-08-21T08:04:37;22.60;99.90
4739;DHT22;2383;48.632;10.156;2022-08-21T08:08:51;23.10;99.90
4739;DHT22;2383;48.632;10.156;2022-08-21T08:12:53;23.40;99.90
4739;DHT22;2383;48.632;10.156;2022-08-21T08:16:56;23.50;99.90
4739;DHT22;2383;48.632;10.156;2022-08-21T08:20:58;23.90;99.90
4739;DHT22;2383;48.632;10.156;2022-08-21T08:25:01;24.00;99.90
4739;DHT22;2383;48.632;10.156;2022-08-21T08:29:09;24.00;99.90
4739;DHT22;2383;48.632;10.156;2022-08-21T08:33:11;24.40;99.90
4739;DHT22;2383;48.632;10.156;2022-08-21T08:37:13;24.20;99.90
4739;DHT22;2383;48.632;10.156;2022-08-21T08:41:18;24.40;99.90
4739;DHT22;2383;48.632;10.156;2022-08-21T08:45:22;24.60;99.90
4739;DHT22;2383;48.632;10.156;2022-08-21T08:49:36;24.60;99.90
4739;DHT22;2383;48.632;10.156;2022-08-21T08:54:07;24.60;99.90
4739;DHT22;2383;48.632;10.156;2022-08-21T08:58:24;24.00;99.90
4739;DHT22;2383;48.632;10.156;2022-08-21T09:02:28;24.20;99.40
4739;DHT22;2383;48.632;10.156;2022-08-21T09:06:42;24.90;99.00
4739;DHT22;2383;48.632;10.156;2022-08-21T09:24:33;24.70;96.60
4739;DHT22;2383;48.632;10.156;2022-08-21T09:28:38;24.70;96.00
4739;DHT22;2383;48.632;10.156;2022-08-21T09:32:42;24.20;94.50
4739;DHT22;2383;48.632;10.156;2022-08-21T09:36:49;24.70;93.00
4739;DHT22;2383;48.632;10.156;2022-08-21T09:40:58;24.80;92.40
4739;DHT22;2383;48.632;10.156;2022-08-21T09:49:27;25.40;93.90
4739;DHT22;2383;48.632;10.156;2022-08-21T09:53:30;24.90;90.90
4739;DHT22;2383;48.632;10.156;2022-08-21T09:57:36;25.10;91.00
4739;DHT22;2383;48.632;10.156;2022-08-21T10:01:49;25.50;91.00
4739;DHT22;2383;48.632;10.156;2022-08-21T10:05:56;25.30;90.10
4739;DHT22;2383;48.632;10.156;2022-08-21T10:10:04;25.20;90.90
4739;DHT22;2383;48.632;10.156;2022-08-21T10:27:59;25.60;89.90
4739;DHT22;2383;48.632;10.156;2022-08-21T10:36:42;25.70;89.10
4739;DHT22;2383;48.632;10.156;2022-08-21T10:40:59;26.30;88.10
4739;DHT22;2383;48.632;10.156;2022-08-21T10:45:10;26.10;87.30
4739;DHT22;2383;48.632;10.156;2022-08-21T11:02:13;25.10;85.40
4739;DHT22;2383;48.632;10.156;2022-08-21T11:06:30;25.60;84.80
4739;DHT22;2383;48.632;10.156;2022-08-21T11:10:44;25.90;84.60
4739;DHT22;2383;48.632;10.156;2022-08-21T11:15:10;25.70;82.20
4739;DHT22;2383;48.632;10.156;2022-08-21T11:23:54;26.40;84.70
4739;DHT22;2383;48.632;10.156;2022-08-21T11:36:41;26.70;81.40
4739;DHT22;2383;48.632;10.156;2022-08-21T11:45:29;26.50;81.60
4739;DHT22;2383;48.632;10.156;2022-08-21T11:49:44;26.10;82.00
4739;DHT22;2383;48.632;10.156;2022-08-21T11:58:49;26.00;81.30
4739;DHT22;2383;48.632;10.156;2022-08-21T12:02:58;26.10;79.20
4739;DHT22;2383;48.632;10.156;2022-08-21T12:07:32;26.60;80.20
4739;DHT22;2383;48.632;10.156;2022-08-21T12:11:47;26.50;80.10
4739;DHT22;2383;48.632;10.156;2022-08-21T12:15:50;26.40;82.00
4739;DHT22;2383;48.632;10.156;2022-08-21T12:19:59;26.40;80.90
4739;DHT22;2383;48.632;10.156;2022-08-21T12:24:17;26.20;81.90
4739;DHT22;2383;48.632;10.156;2022-08-21T12:28:23;26.70;80.10
4739;DHT22;2383;48.632;10.156;2022-08-21T12:32:42;26.50;78.60
4739;DHT22;2383;48.632;10.156;2022-08-21T12:36:49;26.10;82.00
4739;DHT22;2383;48.632;10.156;2022-08-21T12:41:04;25.90;81.50
4739;DHT22;2383;48.632;10.156;2022-08-21T12:45:30;26.30;80.20
4739;DHT22;2383;48.632;10.156;2022-08-21T12:53:56;26.80;76.70
4739;DHT22;2383;48.632;10.156;2022-08-21T12:57:58;27.10;78.60
4739;DHT22;2383;48.632;10.156;2022-08-21T13:02:03;26.80;79.50
4739;DHT22;2383;48.632;10.156;2022-08-21T13:06:14;26.50;79.30
4739;DHT22;2383;48.632;10.156;2022-08-21T13:10:27;27.20;78.50
4739;DHT22;2383;48.632;10.156;2022-08-21T13:14:34;27.60;77.80
4739;DHT22;2383;48.632;10.156;2022-08-21T13:23:01;26.90;76.60
4739;DHT22;2383;48.632;10.156;2022-08-21T13:27:03;26.90;76.20
4739;DHT22;2383;48.632;10.156;2022-08-21T13:31:08;26.70;77.60
4739;DHT22;2383;48.632;10.156;2022-08-21T13:39:22;27.30;79.40
4739;DHT22;2383;48.632;10.156;2022-08-21T13:43:31;27.10;77.10
4739;DHT22;2383;48.632;10.156;2022-08-21T13:47:33;26.60;77.10
4739;DHT22;2383;48.632;10.156;2022-08-21T13:51:36;27.30;78.90
4739;DHT22;2383;48.632;10.156;2022-08-21T13:55:42;26.90;77.20
4739;DHT22;2383;48.632;10.156;2022-08-21T13:59:44;27.50;74.90
4739;DHT22;2383;48.632;10.156;2022-08-21T14:03:48;28.00;75.30
4739;DHT22;2383;48.632;10.156;2022-08-21T14:07:51;27.10;75.00
4739;DHT22;2383;48.632;10.156;2022-08-21T14:12:32;26.80;78.30
4739;DHT22;2383;48.632;10.156;2022-08-21T14:16:29;26.70;77.40
4739;DHT22;2383;48.632;10.156;2022-08-21T14:20:42;27.20;76.00
4739;DHT22;2383;48.632;10.156;2022-08-21T14:24:43;27.20;74.90
4739;DHT22;2383;48.632;10.156;2022-08-21T14:28:50;27.70;75.60
4739;DHT22;2383;48.632;10.156;2022-08-21T14:32:52;27.60;74.90
4739;DHT22;2383;48.632;10.156;2022-08-21T14:36:55;27.50;74.20
4739;DHT22;2383;48.632;10.156;2022-08-21T14:41:04;27.10;75.20
4739;DHT22;2383;48.632;10.156;2022-08-21T14:45:17;26.60;77.10
4739;DHT22;2383;48.632;10.156;2022-08-21T14:49:27;26.90;76.80
4739;DHT22;2383;48.632;10.156;2022-08-21T14:53:31;27.20;76.10
4739;DHT22;2383;48.632;10.156;2022-08-21T14:57:33;27.60;74.30
4739;DHT22;2383;48.632;10.156;2022-08-21T15:01:37;27.80;74.00
4739;DHT22;2383;48.632;10.156;2022-08-21T15:05:40;27.90;75.70
4739;DHT22;2383;48.632;10.156;2022-08-21T15:09:42;27.90;76.60
4739;DHT22;2383;48.632;10.156;2022-08-21T15:13:44;27.80;75.60
4739;DHT22;2383;48.632;10.156;2022-08-21T15:17:46;27.70;78.10
4739;DHT22;2383;48.632;10.156;2022-08-21T15:21:49;27.40;75.80
4739;DHT22;2383;48.632;10.156;2022-08-21T15:25:52;27.50;74.80
4739;DHT22;2383;48.632;10.156;2022-08-21T15:29:54;27.10;75.60
4739;DHT22;2383;48.632;10.156;2022-08-21T15:33:56;27.40;74.90
4739;DHT22;2383;48.632;10.156;2022-08-21T15:37:58;27.90;75.70
4739;DHT22;2383;48.632;10.156;2022-08-21T15:41:59;26.90;74.60
4739;DHT22;2383;48.632;10.156;2022-08-21T15:46:13;27.20;73.50
4739;DHT22;2383;48.632;10.156;2022-08-21T15:50:16;27.90;74.60
4739;DHT22;2383;48.632;10.156;2022-08-21T15:54:18;27.70;74.80
4739;DHT22;2383;48.632;10.156;2022-08-21T15:58:21;27.50;75.20
4739;DHT22;2383;48.632;10.156;2022-08-21T16:02:27;27.70;72.20
4739;DHT22;2383;48.632;10.156;2022-08-21T16:06:30;27.80;73.00
4739;DHT22;2383;48.632;10.156;2022-08-21T16:10:52;27.20;73.10
4739;DHT22;2383;48.632;10.156;2022-08-21T16:14:54;27.40;73.50
4739;DHT22;2383;48.632;10.156;2022-08-21T16:18:56;27.70;72.50
4739;DHT22;2383;48.632;10.156;2022-08-21T16:22:58;27.40;70.70
4739;DHT22;2383;48.632;10.156;2022-08-21T16:27:00;27.00;72.80
4739;DHT22;2383;48.632;10.156;2022-08-21T16:31:03;27.80;70.50
4739;DHT22;2383;48.632;10.156;2022-08-21T16:35:05;27.30;69.60
4739;DHT22;2383;48.632;10.156;2022-08-21T16:39:07;26.60;69.80
4739;DHT22;2383;48.632;10.156;2022-08-21T16:43:09;27.20;68.20
4739;DHT22;2383;48.632;10.156;2022-08-21T16:47:11;27.30;68.50
4739;DHT22;2383;48.632;10.156;2022-08-21T16:51:27;27.60;68.10
4739;DHT22;2383;48.632;10.156;2022-08-21T16:55:30;28.00;67.40
4739;DHT22;2383;48.632;10.156;2022-08-21T16:59:32;27.90;68.40
4739;DHT22;2383;48.632;10.156;2022-08-21T17:03:37;27.60;69.50
4739;DHT22;2383;48.632;10.156;2022-08-21T17:07:41;26.90;71.70
4739;DHT22;2383;48.632;10.156;2022-08-21T17:11:45;26.30;73.20
4739;DHT22;2383;48.632;10.156;2022-08-21T17:15:49;26.70;72.90
4739;DHT22;2383;48.632;10.156;2022-08-21T17:19:52;27.20;73.20
4739;DHT22;2383;48.632;10.156;2022-08-21T17:23:54;27.50;73.30
4739;DHT22;2383;48.632;10.156;2022-08-21T17:27:56;27.40;73.30
4739;DHT22;2383;48.632;10.156;2022-08-21T17:31:58;27.70;72.90
4739;DHT22;2383;48.632;10.156;2022-08-21T17:36:00;27.50;73.60
4739;DHT22;2383;48.632;10.156;2022-08-21T17:40:07;27.40;75.70
4739;DHT22;2383;48.632;10.156;2022-08-21T17:44:11;27.30;79.70
4739;DHT22;2383;48.632;10.156;2022-08-21T17:48:30;27.30;80.50
4739;DHT22;2383;48.632;10.156;2022-08-21T17:52:58;27.30;81.70
4739;DHT22;2383;48.632;10.156;2022-08-21T17:57:00;27.40;82.90
4739;DHT22;2383;48.632;10.156;2022-08-21T18:01:02;26.80;84.50
4739;DHT22;2383;48.632;10.156;2022-08-21T18:05:08;26.10;86.40
4739;DHT22;2383;48.632;10.156;2022-08-21T18:09:11;26.10;87.40
4739;DHT22;2383;48.632;10.156;2022-08-21T18:13:21;25.90;89.10
4739;DHT22;2383;48.632;10.156;2022-08-21T18:17:24;25.90;90.20
4739;DHT22;2383;48.632;10.156;2022-08-21T18:21:29;25.80;91.30
4739;DHT22;2383;48.632;10.156;2022-08-21T18:25:31;25.70;92.10
4739;DHT22;2383;48.632;10.156;2022-08-21T18:29:34;25.80;91.50
4739;DHT22;2383;48.632;10.156;2022-08-21T18:33:48;25.60;92.20
4739;DHT22;2383;48.632;10.156;2022-08-21T18:37:59;25.10;93.40
4739;DHT22;2383;48.632;10.156;2022-08-21T18:42:04;24.20;94.50
4739;DHT22;2383;48.632;10.156;2022-08-21T18:46:08;24.00;93.90
4739;DHT22;2383;48.632;10.156;2022-08-21T18:50:12;23.80;94.30
4739;DHT22;2383;48.632;10.156;2022-08-21T18:54:17;23.80;94.70
4739;DHT22;2383;48.632;10.156;2022-08-21T18:58:19;23.70;94.70
4739;DHT22;2383;48.632;10.156;2022-08-21T19:02:22;24.10;94.80
4739;DHT22;2383;48.632;10.156;2022-08-21T19:06:24;23.80;95.20
4739;DHT22;2383;48.632;10.156;2022-08-21T19:10:26;23.60;95.60
4739;DHT22;2383;48.632;10.156;2022-08-21T19:14:31;23.50;95.70
4739;DHT22;2383;48.632;10.156;2022-08-21T19:18:37;23.20;96.30
4739;DHT22;2383;48.632;10.156;2022-08-21T19:22:40;23.30;96.20
4739;DHT22;2383;48.632;10.156;2022-08-21T19:26:42;23.00;96.50
4739;DHT22;2383;48.632;10.156;2022-08-21T19:30:54;22.60;96.70
4739;DHT22;2383;48.632;10.156;2022-08-21T19:34:56;22.00;97.60
4739;DHT22;2383;48.632;10.156;2022-08-21T19:39:18;22.40;97.30
4739;DHT22;2383;48.632;10.156;2022-08-21T19:43:20;21.90;97.90
4739;DHT22;2383;48.632;10.156;2022-08-21T19:47:23;22.10;98.20
4739;DHT22;2383;48.632;10.156;2022-08-21T19:51:30;22.20;98.10
4739;DHT22;2383;48.632;10.156;2022-08-21T19:55:31;22.40;97.90
4739;DHT22;2383;48.632;10.156;2022-08-21T19:59:36;22.90;97.40
4739;DHT22;2383;48.632;10.156;2022-08-21T20:03:40;23.00;97.10
4739;DHT22;2383;48.632;10.156;2022-08-21T20:07:44;23.00;97.30
4739;DHT22;2383;48.632;10.156;2022-08-21T20:11:49;23.20;96.80
4739;DHT22;2383;48.632;10.156;2022-08-21T20:15:52;23.20;96.00
4739;DHT22;2383;48.632;10.156;2022-08-21T20:19:54;22.70;95.60
4739;DHT22;2383;48.632;10.156;2022-08-21T20:23:56;22.60;95.60
4739;DHT22;2383;48.632;10.156;2022-08-21T20:28:01;22.80;95.50
4739;DHT22;2383;48.632;10.156;2022-08-21T20:32:06;23.00;95.60
4739;DHT22;2383;48.632;10.156;2022-08-21T20:36:13;22.80;95.20
4739;DHT22;2383;48.632;10.156;2022-08-21T20:40:15;23.00;95.40
4739;DHT22;2383;48.632;10.156;2022-08-21T20:44:22;22.90;95.10
4739;DHT22;2383;48.632;10.156;2022-08-21T20:48:31;22.30;95.80
4739;DHT22;2383;48.632;10.156;2022-08-21T20:53:07;22.40;95.80
4739;DHT22;2383;48.632;10.156;2022-08-21T21:01:19;21.70;96.50
4739;DHT22;2383;48.632;10.156;2022-08-21T21:05:29;21.20;97.90
4739;DHT22;2383;48.632;10.156;2022-08-21T21:09:36;20.80;99.10
4739;DHT22;2383;48.632;10.156;2022-08-21T21:14:07;20.70;99.00
4739;DHT22;2383;48.632;10.156;2022-08-21T21:18:13;20.70;99.00
4739;DHT22;2383;48.632;10.156;2022-08-21T21:22:30;21.30;98.10
4739;DHT22;2383;48.632;10.156;2022-08-21T21:26:37;21.00;98.60
4739;DHT22;2383;48.632;10.156;2022-08-21T21:30:47;21.10;98.20
4739;DHT22;2383;48.632;10.156;2022-08-21T21:34:58;21.10;98.40
4739;DHT22;2383;48.632;10.156;2022-08-21T21:44:01;20.70;98.90
4739;DHT22;2383;48.632;10.156;2022-08-21T21:53:01;21.00;99.10
4739;DHT22;2383;48.632;10.156;2022-08-21T22:02:05;20.60;99.60
4739;DHT22;2383;48.632;10.156;2022-08-21T22:06:21;20.00;99.90
4739;DHT22;2383;48.632;10.156;2022-08-21T22:15:25;19.80;99.90
4739;DHT22;2383;48.632;10.156;2022-08-21T22:19:32;20.00;99.90
4739;DHT22;2383;48.632;10.156;2022-08-21T22:23:42;19.60;99.90
4739;DHT22;2383;48.632;10.156;2022-08-21T22:27:50;19.00;99.90
4739;DHT22;2383;48.632;10.156;2022-08-21T22:32:08;19.40;99.90
4739;DHT22;2383;48.632;10.156;2022-08-21T22:36:17;18.40;99.90
4739;DHT22;2383;48.632;10.156;2022-08-21T22:40:26;18.50;99.90
4739;DHT22;2383;48.632;10.156;2022-08-21T22:44:29;18.50;99.90
4739;DHT22;2383;48.632;10.156;2022-08-21T22:48:53;19.30;99.90
4739;DHT22;2383;48.632;10.156;2022-08-21T22:53:00;19.90;99.90
4739;DHT22;2383;48.632;10.156;2022-08-21T22:57:06;18.40;99.90
4739;DHT22;2383;48.632;10.156;2022-08-21T23:05:35;18.20;99.90
4739;DHT22;2383;48.632;10.156;2022-08-21T23:09:45;18.90;99.90
4739;DHT22;2383;48.632;10.156;2022-08-21T23:13:50;17.90;99.90
4739;DHT22;2383;48.632;10.156;2022-08-21T23:26:58;18.60;99.90
4739;DHT22;2383;48.632;10.156;2022-08-21T23:35:28;18.60;99.90
4739;DHT22;2383;48.632;10.156;2022-08-21T23:53:49;19.40;99.90
4739;DHT22;2383;48.632;10.156;2022-08-21T23:58:27;18.30;99.90
